sensor_id;sensor_type;location;lat;lon;timestamp;pressure;altitude;pressure_sealevel;temperature;humidity
25664;BME280;13522;50.018;20.014;2023-02-12T00:00:28;100054.61;;;3.75;100.00
25664;BME280;13522;50.018;20.014;2023-02-12T00:03:42;100061.50;;;3.77;100.00
25664;BME280;13522;50.018;20.014;2023-02-12T00:15:55;100063.16;;;3.80;100.00
25664;BME280;13522;50.018;20.014;2023-02-12T00:19:08;100067.55;;;3.79;100.00
25664;BME280;13522;50.018;20.014;2023-02-12T00:22:20;100063.16;;;3.80;100.00
25664;BME280;13522;50.018;20.014;2023-02-12T00:25:32;100068.48;;;3.78;100.00
25664;BME280;13522;50.018;20.014;2023-02-12T00:28:47;100064.13;;;3.77;100.00
25664;BME280;13522;50.018;20.014;2023-02-12T00:32:12;100071.03;;;3.80;100.00
25664;BME280;13522;50.018;20.014;2023-02-12T00:35:24;100065.85;;;3.78;100.00
25664;BME280;13522;50.018;20.014;2023-02-12T00:38:39;100076.36;;;3.78;100.00
25664;BME280;13522;50.018;20.014;2023-02-12T00:41:51;100073.78;;;3.77;100.00
25664;BME280;13522;50.018;20.014;2023-02-12T01:14:17;100091.11;;;3.81;100.00
25664;BME280;13522;50.018;20.014;2023-02-12T01:17:30;100095.47;;;3.82;100.00
25664;BME280;13522;50.018;20.014;2023-02-12T01:20:43;100092.84;;;3.82;100.00
25664;BME280;13522;50.018;20.014;2023-02-12T01:23:55;100094.69;;;3.80;100.00
25664;BME280;13522;50.018;20.014;2023-02-12T01:27:08;100100.80;;;3.80;100.00
25664;BME280;13522;50.018;20.014;2023-02-12T01:30:21;100099.86;;;3.81;100.00
25664;BME280;13522;50.018;20.014;2023-02-12T01:33:33;100098.02;;;3.83;100.00
25664;BME280;13522;50.018;20.014;2023-02-12T01:36:46;100104.06;;;3.85;100.00
25664;BME280;13522;50.018;20.014;2023-02-12T01:39:57;100117.98;;;3.87;100.00
25664;BME280;13522;50.018;20.014;2023-02-12T01:49:13;100117.13;;;3.87;100.00
25664;BME280;13522;50.018;20.014;2023-02-12T01:52:30;100122.30;;;3.88;100.00
25664;BME280;13522;50.018;20.014;2023-02-12T01:55:49;100115.20;;;3.90;100.00
25664;BME280;13522;50.018;20.014;2023-02-12T02:14:25;100146.86;;;4.07;100.00
25664;BME280;13522;50.018;20.014;2023-02-12T02:36:56;100186.09;;;4.12;100.00
25664;BME280;13522;50.018;20.014;2023-02-12T02:40:13;100189.56;;;4.12;100.00
25664;BME280;13522;50.018;20.014;2023-02-12T02:43:30;100200.81;;;4.16;100.00
25664;BME280;13522;50.018;20.014;2023-02-12T02:46:46;100206.00;;;4.17;100.00
25664;BME280;13522;50.018;20.014;2023-02-12T02:50:03;100207.77;;;4.17;100.00
25664;BME280;13522;50.018;20.014;2023-02-12T03:15:06;100235.44;;;4.25;100.00
25664;BME280;13522;50.018;20.014;2023-02-12T03:18:23;100247.80;;;4.23;100.00
25664;BME280;13522;50.018;20.014;2023-02-12T03:21:41;100249.49;;;4.24;100.00
25664;BME280;13522;50.018;20.014;2023-02-12T03:24:59;100260.88;;;4.25;100.00
25664;BME280;13522;50.018;20.014;2023-02-12T03:28:17;100260.88;;;4.25;100.00
25664;BME280;13522;50.018;20.014;2023-02-12T03:31:35;100272.17;;;4.27;100.00
25664;BME280;13522;50.018;20.014;2023-02-12T03:34:54;100265.16;;;4.27;100.00
25664;BME280;13522;50.018;20.014;2023-02-12T03:41:17;100282.77;;;4.25;100.00
25664;BME280;13522;50.018;20.014;2023-02-12T03:53:33;100305.16;;;4.34;100.00
25664;BME280;13522;50.018;20.014;2023-02-12T03:56:49;100305.23;;;4.32;100.00
25664;BME280;13522;50.018;20.014;2023-02-12T04:21:45;100359.03;;;4.25;100.00
25664;BME280;13522;50.018;20.014;2023-02-12T04:25:06;100359.83;;;4.27;100.00
25664;BME280;13522;50.018;20.014;2023-02-12T04:28:27;100369.41;;;4.28;100.00
25664;BME280;13522;50.018;20.014;2023-02-12T04:34:49;100372.55;;;4.16;100.00
25664;BME280;13522;50.018;20.014;2023-02-12T04:59:42;100433.48;;;3.84;100.00
25664;BME280;13522;50.018;20.014;2023-02-12T05:05:54;100445.92;;;3.79;100.00
25664;BME280;13522;50.018;20.014;2023-02-12T05:09:14;100459.23;;;3.75;100.00
25664;BME280;13522;50.018;20.014;2023-02-12T05:15:29;100479.08;;;3.60;100.00
25664;BME280;13522;50.018;20.014;2023-02-12T05:21:41;100474.89;;;3.54;100.00
25664;BME280;13522;50.018;20.014;2023-02-12T05:24:53;100483.29;;;3.41;100.00
25664;BME280;13522;50.018;20.014;2023-02-12T05:28:05;100481.02;;;3.32;100.00
25664;BME280;13522;50.018;20.014;2023-02-12T05:31:19;100481.81;;;3.34;100.00
25664;BME280;13522;50.018;20.014;2023-02-12T05:37:31;100494.14;;;3.32;100.00
25664;BME280;13522;50.018;20.014;2023-02-12T05:40:45;100506.47;;;3.30;100.00
25664;BME280;13522;50.018;20.014;2023-02-12T05:43:57;100499.48;;;3.29;100.00
25664;BME280;13522;50.018;20.014;2023-02-12T05:50:10;100531.92;;;3.28;100.00
25664;BME280;13522;50.018;20.014;2023-02-12T06:15:04;100557.71;;;3.17;100.00
25664;BME280;13522;50.018;20.014;2023-02-12T06:21:18;100572.75;;;3.12;100.00
25664;BME280;13522;50.018;20.014;2023-02-12T07:05:14;100632.22;;;2.87;100.00
25664;BME280;13522;50.018;20.014;2023-02-12T07:23:49;100659.84;;;2.71;100.00
25664;BME280;13522;50.018;20.014;2023-02-12T07:27:02;100671.28;;;2.68;100.00
25664;BME280;13522;50.018;20.014;2023-02-12T07:30:15;100673.22;;;2.61;100.00
25664;BME280;13522;50.018;20.014;2023-02-12T07:33:27;100674.44;;;2.51;100.00
25664;BME280;13522;50.018;20.014;2023-02-12T07:36:39;100684.88;;;2.53;100.00
25664;BME280;13522;50.018;20.014;2023-02-12T07:39:51;100680.63;;;2.49;100.00
25664;BME280;13522;50.018;20.014;2023-02-12T07:43:03;100688.44;;;2.50;100.00
25664;BME280;13522;50.018;20.014;2023-02-12T07:46:19;100688.15;;;2.59;100.00
25664;BME280;13522;50.018;20.014;2023-02-12T07:49:35;100690.70;;;2.62;100.00
25664;BME280;13522;50.018;20.014;2023-02-12T07:52:49;100692.45;;;2.62;100.00
25664;BME280;13522;50.018;20.014;2023-02-12T07:56:10;100707.30;;;2.63;100.00
25664;BME280;13522;50.018;20.014;2023-02-12T07:59:23;100713.55;;;2.59;100.00
25664;BME280;13522;50.018;20.014;2023-02-12T08:02:35;100712.49;;;2.64;100.00
25664;BME280;13522;50.018;20.014;2023-02-12T08:05:48;100715.00;;;2.68;100.00
25664;BME280;13522;50.018;20.014;2023-02-12T08:09:02;100720.72;;;2.52;100.00
25664;BME280;13522;50.018;20.014;2023-02-12T08:12:17;100718.10;;;2.52;100.00
25664;BME280;13522;50.018;20.014;2023-02-12T08:15:29;100719.73;;;2.56;100.00
25664;BME280;13522;50.018;20.014;2023-02-12T08:18:42;100727.55;;;2.58;100.00
25664;BME280;13522;50.018;20.014;2023-02-12T08:21:55;100727.31;;;2.65;100.00
25664;BME280;13522;50.018;20.014;2023-02-12T08:25:08;100722.12;;;2.64;100.00
25664;BME280;13522;50.018;20.014;2023-02-12T08:28:20;100721.88;;;2.72;100.00
25664;BME280;13522;50.018;20.014;2023-02-12T08:31:34;100721.06;;;2.70;100.00
25664;BME280;13522;50.018;20.014;2023-02-12T08:34:47;100733.19;;;2.74;100.00
25664;BME280;13522;50.018;20.014;2023-02-12T08:37:59;100735.18;;;2.65;99.70
25664;BME280;13522;50.018;20.014;2023-02-12T08:41:14;100731.61;;;2.68;100.00
25664;BME280;13522;50.018;20.014;2023-02-12T08:44:30;100736.73;;;2.73;99.68
25664;BME280;13522;50.018;20.014;2023-02-12T08:47:44;100734.11;;;2.73;98.88
25664;BME280;13522;50.018;20.014;2023-02-12T08:54:31;100737.60;;;2.73;99.04
25664;BME280;13522;50.018;20.014;2023-02-12T08:57:44;100744.55;;;2.74;97.47
25664;BME280;13522;50.018;20.014;2023-02-12T09:00:58;100742.50;;;2.84;96.91
25664;BME280;13522;50.018;20.014;2023-02-12T09:04:14;100756.91;;;2.71;96.64
25664;BME280;13522;50.018;20.014;2023-02-12T09:07:27;100765.53;;;2.74;96.86
25664;BME280;13522;50.018;20.014;2023-02-12T09:10:41;100778.94;;;2.65;96.18
25664;BME280;13522;50.018;20.014;2023-02-12T09:13:55;100783.48;;;2.88;96.85
25664;BME280;13522;50.018;20.014;2023-02-12T09:17:10;100787.48;;;3.01;95.73
25664;BME280;13522;50.018;20.014;2023-02-12T09:20:24;100788.92;;;2.82;94.84
25664;BME280;13522;50.018;20.014;2023-02-12T09:23:38;100802.91;;;2.82;95.99
25664;BME280;13522;50.018;20.014;2023-02-12T09:26:51;100809.08;;;2.81;98.21
25664;BME280;13522;50.018;20.014;2023-02-12T09:30:04;100818.70;;;2.81;96.46
25664;BME280;13522;50.018;20.014;2023-02-12T09:33:18;100813.45;;;2.81;96.26
25664;BME280;13522;50.018;20.014;2023-02-12T09:36:31;100814.32;;;2.81;95.60
25664;BME280;13522;50.018;20.014;2023-02-12T09:39:43;100815.84;;;2.88;94.80
25664;BME280;13522;50.018;20.014;2023-02-12T09:43:08;100813.09;;;2.93;94.67
25664;BME280;13522;50.018;20.014;2023-02-12T09:46:30;100809.73;;;2.88;94.05
25664;BME280;13522;50.018;20.014;2023-02-12T09:53:29;100819.59;;;2.80;94.67
25664;BME280;13522;50.018;20.014;2023-02-12T09:56:45;100809.91;;;2.82;94.83
25664;BME280;13522;50.018;20.014;2023-02-12T10:00:00;100812.69;;;2.77;94.86
25664;BME280;13522;50.018;20.014;2023-02-12T10:03:18;100814.14;;;2.87;96.42
25664;BME280;13522;50.018;20.014;2023-02-12T10:06:32;100811.47;;;2.89;94.69
25664;BME280;13522;50.018;20.014;2023-02-12T10:09:58;100820.63;;;3.03;95.66
25664;BME280;13522;50.018;20.014;2023-02-12T10:13:21;100818.61;;;3.13;94.98
25664;BME280;13522;50.018;20.014;2023-02-12T10:16:44;100818.27;;;3.23;94.45
25664;BME280;13522;50.018;20.014;2023-02-12T10:20:26;100819.56;;;3.38;94.68
25664;BME280;13522;50.018;20.014;2023-02-12T10:24:13;100819.48;;;3.67;94.15
25664;BME280;13522;50.018;20.014;2023-02-12T10:27:45;100818.56;;;3.94;92.67
25664;BME280;13522;50.018;20.014;2023-02-12T10:31:01;100824.34;;;3.79;91.47
25664;BME280;13522;50.018;20.014;2023-02-12T10:34:19;100823.14;;;3.89;90.32
25664;BME280;13522;50.018;20.014;2023-02-12T10:37:36;100812.89;;;4.06;89.35
25664;BME280;13522;50.018;20.014;2023-02-12T10:40:51;100817.95;;;4.12;87.36
25664;BME280;13522;50.018;20.014;2023-02-12T10:44:07;100815.52;;;4.56;88.23
25664;BME280;13522;50.018;20.014;2023-02-12T10:47:22;100815.64;;;4.53;86.05
25664;BME280;13522;50.018;20.014;2023-02-12T10:50:46;100818.40;;;4.50;85.88
25664;BME280;13522;50.018;20.014;2023-02-12T10:54:34;100817.41;;;4.52;85.83
25664;BME280;13522;50.018;20.014;2023-02-12T10:57:48;100821.49;;;4.61;84.57
25664;BME280;13522;50.018;20.014;2023-02-12T11:01:01;100812.91;;;5.02;83.33
25664;BME280;13522;50.018;20.014;2023-02-12T11:04:27;100807.20;;;4.91;82.87
25664;BME280;13522;50.018;20.014;2023-02-12T11:07:49;100799.83;;;5.22;81.26
25664;BME280;13522;50.018;20.014;2023-02-12T11:11:11;100805.51;;;5.11;82.89
25664;BME280;13522;50.018;20.014;2023-02-12T11:14:24;100813.31;;;5.14;82.77
25664;BME280;13522;50.018;20.014;2023-02-12T11:17:38;100804.45;;;5.60;80.40
25664;BME280;13522;50.018;20.014;2023-02-12T11:20:55;100804.16;;;6.09;78.87
25664;BME280;13522;50.018;20.014;2023-02-12T11:24:29;100789.93;;;6.91;73.88
25664;BME280;13522;50.018;20.014;2023-02-12T11:27:43;100793.25;;;6.76;73.70
25664;BME280;13522;50.018;20.014;2023-02-12T11:30:59;100800.13;;;6.21;75.71
25664;BME280;13522;50.018;20.014;2023-02-12T11:34:15;100801.56;;;6.28;76.41
25664;BME280;13522;50.018;20.014;2023-02-12T11:37:29;100806.45;;;6.76;73.52
25664;BME280;13522;50.018;20.014;2023-02-12T11:40:46;100807.70;;;7.06;73.25
25664;BME280;13522;50.018;20.014;2023-02-12T11:43:59;100797.37;;;7.56;71.11
25664;BME280;13522;50.018;20.014;2023-02-12T11:47:17;100798.44;;;8.22;69.55
25664;BME280;13522;50.018;20.014;2023-02-12T11:50:32;100793.28;;;8.19;68.24
25664;BME280;13522;50.018;20.014;2023-02-12T11:53:48;100792.44;;;7.84;69.78
25664;BME280;13522;50.018;20.014;2023-02-12T11:57:04;100788.70;;;6.98;73.34
25664;BME280;13522;50.018;20.014;2023-02-12T12:00:28;100787.64;;;6.45;73.04
25664;BME280;13522;50.018;20.014;2023-02-12T12:03:51;100793.27;;;6.37;75.82
25664;BME280;13522;50.018;20.014;2023-02-12T12:07:08;100801.34;;;5.92;76.51
25664;BME280;13522;50.018;20.014;2023-02-12T12:10:28;100798.21;;;5.83;77.20
25664;BME280;13522;50.018;20.014;2023-02-12T12:13:45;100798.48;;;5.55;78.75
25664;BME280;13522;50.018;20.014;2023-02-12T12:17:01;100794.31;;;5.71;78.33
25664;BME280;13522;50.018;20.014;2023-02-12T12:20:34;100789.37;;;5.42;80.26
25664;BME280;13522;50.018;20.014;2023-02-12T12:23:51;100786.98;;;5.36;81.04
25664;BME280;13522;50.018;20.014;2023-02-12T12:27:11;100782.78;;;5.95;80.56
25664;BME280;13522;50.018;20.014;2023-02-12T12:30:52;100775.84;;;6.33;77.45
25664;BME280;13522;50.018;20.014;2023-02-12T12:34:10;100768.30;;;6.44;75.83
25664;BME280;13522;50.018;20.014;2023-02-12T12:37:31;100770.77;;;6.08;77.94
25664;BME280;13522;50.018;20.014;2023-02-12T12:40:53;100781.19;;;5.91;79.42
25664;BME280;13522;50.018;20.014;2023-02-12T12:44:17;100778.09;;;5.80;79.96
25664;BME280;13522;50.018;20.014;2023-02-12T12:47:42;100769.96;;;5.86;78.62
25664;BME280;13522;50.018;20.014;2023-02-12T12:51:10;100773.92;;;5.96;78.42
25664;BME280;13522;50.018;20.014;2023-02-12T12:54:34;100780.22;;;5.51;80.08
25664;BME280;13522;50.018;20.014;2023-02-12T12:57:58;100782.61;;;5.35;80.94
25664;BME280;13522;50.018;20.014;2023-02-12T13:01:23;100785.48;;;5.29;81.02
25664;BME280;13522;50.018;20.014;2023-02-12T13:05:22;100777.03;;;5.21;82.66
25664;BME280;13522;50.018;20.014;2023-02-12T13:09:05;100782.80;;;5.09;82.44
25664;BME280;13522;50.018;20.014;2023-02-12T13:16:34;100787.84;;;5.15;83.13
25664;BME280;13522;50.018;20.014;2023-02-12T13:19:57;100794.64;;;4.97;83.68
25664;BME280;13522;50.018;20.014;2023-02-12T13:23:16;100807.30;;;4.88;84.33
25664;BME280;13522;50.018;20.014;2023-02-12T13:26:38;100813.53;;;4.85;84.90
25664;BME280;13522;50.018;20.014;2023-02-12T13:29:57;100800.33;;;4.87;85.46
25664;BME280;13522;50.018;20.014;2023-02-12T13:33:14;100797.58;;;4.90;86.14
25664;BME280;13522;50.018;20.014;2023-02-12T13:36:28;100795.07;;;4.87;86.16
25664;BME280;13522;50.018;20.014;2023-02-12T13:39:42;100790.73;;;5.07;86.81
25664;BME280;13522;50.018;20.014;2023-02-12T13:43:01;100803.50;;;5.18;85.88
25664;BME280;13522;50.018;20.014;2023-02-12T13:46:20;100800.70;;;5.44;84.28
25664;BME280;13522;50.018;20.014;2023-02-12T13:49:40;100804.87;;;5.50;83.50
25664;BME280;13522;50.018;20.014;2023-02-12T13:53:00;100800.70;;;5.44;83.98
25664;BME280;13522;50.018;20.014;2023-02-12T13:56:28;100798.25;;;5.40;83.88
25664;BME280;13522;50.018;20.014;2023-02-12T13:59:48;100793.39;;;5.29;83.69
25664;BME280;13522;50.018;20.014;2023-02-12T14:03:08;100797.86;;;5.27;83.44
25664;BME280;13522;50.018;20.014;2023-02-12T14:06:22;100797.86;;;5.27;83.97
25664;BME280;13522;50.018;20.014;2023-02-12T14:09:39;100792.73;;;5.24;83.69
25664;BME280;13522;50.018;20.014;2023-02-12T14:12:57;100803.01;;;5.08;85.11
25664;BME280;13522;50.018;20.014;2023-02-12T14:16:37;100804.84;;;5.06;84.96
25664;BME280;13522;50.018;20.014;2023-02-12T14:20:06;100803.57;;;5.16;84.65
25664;BME280;13522;50.018;20.014;2023-02-12T14:23:26;100806.14;;;5.18;86.88
25664;BME280;13522;50.018;20.014;2023-02-12T14:26:40;100805.34;;;5.16;86.08
25664;BME280;13522;50.018;20.014;2023-02-12T14:33:43;100801.91;;;5.14;86.00
25664;BME280;13522;50.018;20.014;2023-02-12T14:37:10;100796.88;;;5.08;86.62
25664;BME280;13522;50.018;20.014;2023-02-12T14:40:39;100788.17;;;5.06;85.19
25664;BME280;13522;50.018;20.014;2023-02-12T14:43:52;100782.24;;;5.01;86.01
25664;BME280;13522;50.018;20.014;2023-02-12T14:47:52;100793.67;;;5.00;86.31
25664;BME280;13522;50.018;20.014;2023-02-12T14:51:04;100793.91;;;4.94;88.12
25664;BME280;13522;50.018;20.014;2023-02-12T14:54:24;100798.60;;;4.86;87.11
25664;BME280;13522;50.018;20.014;2023-02-12T14:57:40;100792.98;;;4.72;89.76
25664;BME280;13522;50.018;20.014;2023-02-12T15:00:54;100793.44;;;4.60;87.89
25664;BME280;13522;50.018;20.014;2023-02-12T15:04:10;100799.98;;;4.50;89.13
25664;BME280;13522;50.018;20.014;2023-02-12T15:07:28;100808.34;;;4.36;90.32
25664;BME280;13522;50.018;20.014;2023-02-12T15:10:47;100807.94;;;4.23;89.47
25664;BME280;13522;50.018;20.014;2023-02-12T15:14:05;100816.99;;;4.15;90.65
25664;BME280;13522;50.018;20.014;2023-02-12T15:17:23;100819.08;;;4.05;90.41
25664;BME280;13522;50.018;20.014;2023-02-12T15:20:39;100824.63;;;3.96;90.11
25664;BME280;13522;50.018;20.014;2023-02-12T15:24:05;100824.14;;;3.85;89.97
25664;BME280;13522;50.018;20.014;2023-02-12T15:27:19;100813.75;;;3.82;91.79
25664;BME280;13522;50.018;20.014;2023-02-12T15:30:33;100826.22;;;3.76;90.87
25664;BME280;13522;50.018;20.014;2023-02-12T15:33:48;100826.28;;;3.74;90.66
25664;BME280;13522;50.018;20.014;2023-02-12T15:37:03;100830.87;;;3.68;92.04
25664;BME280;13522;50.018;20.014;2023-02-12T15:40:17;100836.13;;;3.68;90.51
25664;BME280;13522;50.018;20.014;2023-02-12T15:43:32;100831.00;;;3.63;90.33
25664;BME280;13522;50.018;20.014;2023-02-12T15:46:59;100837.38;;;3.56;91.52
25664;BME280;13522;50.018;20.014;2023-02-12T15:50:15;100844.64;;;3.48;91.49
25664;BME280;13522;50.018;20.014;2023-02-12T15:53:29;100841.47;;;3.37;92.14
25664;BME280;13522;50.018;20.014;2023-02-12T15:56:42;100850.89;;;3.44;94.31
25664;BME280;13522;50.018;20.014;2023-02-12T15:59:58;100841.70;;;3.57;96.55
25664;BME280;13522;50.018;20.014;2023-02-12T16:03:23;100844.45;;;3.54;96.99
25664;BME280;13522;50.018;20.014;2023-02-12T16:06:37;100855.60;;;3.61;98.33
25664;BME280;13522;50.018;20.014;2023-02-12T16:09:51;100842.44;;;3.62;98.39
25664;BME280;13522;50.018;20.014;2023-02-12T16:13:04;100845.77;;;3.67;98.37
25664;BME280;13522;50.018;20.014;2023-02-12T16:16:24;100852.64;;;3.71;97.53
25664;BME280;13522;50.018;20.014;2023-02-12T16:19:37;100850.88;;;3.72;97.08
25664;BME280;13522;50.018;20.014;2023-02-12T16:22:52;100851.89;;;3.68;96.65
25664;BME280;13522;50.018;20.014;2023-02-12T16:26:06;100848.39;;;3.67;96.05
25664;BME280;13522;50.018;20.014;2023-02-12T16:29:19;100863.34;;;3.65;96.43
25664;BME280;13522;50.018;20.014;2023-02-12T16:32:35;100860.02;;;3.60;96.41
25664;BME280;13522;50.018;20.014;2023-02-12T16:36:00;100865.47;;;3.54;96.41
25664;BME280;13522;50.018;20.014;2023-02-12T16:42:44;100881.59;;;3.42;95.96
25664;BME280;13522;50.018;20.014;2023-02-12T16:46:08;100891.37;;;3.37;96.22
25664;BME280;13522;50.018;20.014;2023-02-12T16:49:24;100901.22;;;3.30;96.03
25664;BME280;13522;50.018;20.014;2023-02-12T16:52:39;100901.34;;;3.26;95.82
25664;BME280;13522;50.018;20.014;2023-02-12T16:55:51;100913.77;;;3.21;96.32
25664;BME280;13522;50.018;20.014;2023-02-12T16:59:04;100908.59;;;3.18;96.13
25664;BME280;13522;50.018;20.014;2023-02-12T17:02:18;100900.00;;;3.13;96.47
25664;BME280;13522;50.018;20.014;2023-02-12T17:05:30;100906.23;;;3.09;96.18
25664;BME280;13522;50.018;20.014;2023-02-12T17:08:42;100903.69;;;3.06;96.11
25664;BME280;13522;50.018;20.014;2023-02-12T17:11:55;100898.48;;;3.04;96.19
25664;BME280;13522;50.018;20.014;2023-02-12T17:15:09;100907.41;;;2.99;96.48
25664;BME280;13522;50.018;20.014;2023-02-12T17:18:22;100896.91;;;2.99;96.12
25664;BME280;13522;50.018;20.014;2023-02-12T17:21:38;100896.98;;;2.96;96.32
25664;BME280;13522;50.018;20.014;2023-02-12T17:24:54;100911.02;;;2.95;96.49
25664;BME280;13522;50.018;20.014;2023-02-12T17:28:07;100912.89;;;2.90;96.67
25664;BME280;13522;50.018;20.014;2023-02-12T17:31:20;100908.63;;;2.86;96.77
25664;BME280;13522;50.018;20.014;2023-02-12T17:34:35;100915.73;;;2.82;96.98
25664;BME280;13522;50.018;20.014;2023-02-12T17:37:50;100909.66;;;2.80;97.43
25664;BME280;13522;50.018;20.014;2023-02-12T17:41:02;100921.09;;;2.78;97.64
25664;BME280;13522;50.018;20.014;2023-02-12T17:44:19;100915.18;;;2.71;97.78
25664;BME280;13522;50.018;20.014;2023-02-12T17:47:32;100906.50;;;2.68;98.28
25664;BME280;13522;50.018;20.014;2023-02-12T17:50:45;100914.52;;;2.63;98.42
25664;BME280;13522;50.018;20.014;2023-02-12T17:54:05;100907.54;;;2.62;98.77
25664;BME280;13522;50.018;20.014;2023-02-12T17:57:26;100897.09;;;2.60;99.33
25664;BME280;13522;50.018;20.014;2023-02-12T18:00:40;100900.70;;;2.56;99.32
25664;BME280;13522;50.018;20.014;2023-02-12T18:03:53;100902.61;;;2.50;99.62
25664;BME280;13522;50.018;20.014;2023-02-12T18:07:08;100890.48;;;2.46;99.93
25664;BME280;13522;50.018;20.014;2023-02-12T18:10:21;100897.67;;;2.39;100.00
25664;BME280;13522;50.018;20.014;2023-02-12T18:13:34;100903.03;;;2.35;100.00
25664;BME280;13522;50.018;20.014;2023-02-12T18:16:47;100901.28;;;2.35;100.00
25664;BME280;13522;50.018;20.014;2023-02-12T18:20:13;100896.86;;;2.37;100.00
25664;BME280;13522;50.018;20.014;2023-02-12T18:23:55;100903.91;;;2.35;100.00
25664;BME280;13522;50.018;20.014;2023-02-12T18:27:08;100910.08;;;2.33;100.00
25664;BME280;13522;50.018;20.014;2023-02-12T18:30:21;100903.19;;;2.29;100.00
25664;BME280;13522;50.018;20.014;2023-02-12T18:34:36;100907.52;;;2.30;100.00
25664;BME280;13522;50.018;20.014;2023-02-12T18:38:17;100902.98;;;2.36;100.00
25664;BME280;13522;50.018;20.014;2023-02-12T18:42:16;100900.36;;;2.36;100.00
25664;BME280;13522;50.018;20.014;2023-02-12T18:45:29;100900.36;;;2.36;100.00
25664;BME280;13522;50.018;20.014;2023-02-12T18:49:29;100895.12;;;2.36;100.00
25664;BME280;13522;50.018;20.014;2023-02-12T18:52:52;100898.56;;;2.38;100.00
25664;BME280;13522;50.018;20.014;2023-02-12T18:57:10;100895.12;;;2.36;100.00
25664;BME280;13522;50.018;20.014;2023-02-12T19:00:51;100894.30;;;2.34;100.00
25664;BME280;13522;50.018;20.014;2023-02-12T19:04:32;100892.50;;;2.36;100.00
25664;BME280;13522;50.018;20.014;2023-02-12T19:07:45;100895.05;;;2.39;100.00
25664;BME280;13522;50.018;20.014;2023-02-12T19:11:26;100896.70;;;2.43;100.00
25664;BME280;13522;50.018;20.014;2023-02-12T19:15:33;100881.73;;;2.47;100.00
25664;BME280;13522;50.018;20.014;2023-02-12T19:18:48;100889.55;;;2.48;100.00
25664;BME280;13522;50.018;20.014;2023-02-12T19:22:50;100881.64;;;2.50;100.00
25664;BME280;13522;50.018;20.014;2023-02-12T19:26:34;100891.13;;;2.55;100.00
25664;BME280;13522;50.018;20.014;2023-02-12T19:29:46;100889.23;;;2.60;100.00
25664;BME280;13522;50.018;20.014;2023-02-12T19:32:59;100884.70;;;2.65;100.00
25664;BME280;13522;50.018;20.014;2023-02-12T19:36:14;100882.88;;;2.69;100.00
25664;BME280;13522;50.018;20.014;2023-02-12T19:39:43;100882.90;;;2.68;100.00
25664;BME280;13522;50.018;20.014;2023-02-12T19:42:57;100879.83;;;2.52;100.00
25664;BME280;13522;50.018;20.014;2023-02-12T19:46:15;100879.32;;;2.39;100.00
25664;BME280;13522;50.018;20.014;2023-02-12T19:49:29;100870.23;;;2.19;100.00
25664;BME280;13522;50.018;20.014;2023-02-12T19:52:44;100871.33;;;2.10;100.00
25664;BME280;13522;50.018;20.014;2023-02-12T19:56:00;100876.35;;;2.19;100.00
25664;BME280;13522;50.018;20.014;2023-02-12T19:59:13;100882.21;;;2.29;100.00
25664;BME280;13522;50.018;20.014;2023-02-12T20:02:28;100879.64;;;2.27;100.00
25664;BME280;13522;50.018;20.014;2023-02-12T20:06:30;100876.56;;;2.10;100.00
25664;BME280;13522;50.018;20.014;2023-02-12T20:09:44;100876.88;;;1.98;100.00
25664;BME280;13522;50.018;20.014;2023-02-12T20:12:57;100875.16;;;1.97;100.00
25664;BME280;13522;50.018;20.014;2023-02-12T20:16:13;100888.27;;;1.97;100.00
25664;BME280;13522;50.018;20.014;2023-02-12T20:19:29;100883.95;;;1.95;100.00
25664;BME280;13522;50.018;20.014;2023-02-12T20:22:42;100884.97;;;1.89;100.00
25664;BME280;13522;50.018;20.014;2023-02-12T20:26:23;100891.03;;;1.91;100.00
25664;BME280;13522;50.018;20.014;2023-02-12T20:30:07;100896.19;;;1.94;100.00
25664;BME280;13522;50.018;20.014;2023-02-12T20:33:51;100894.33;;;1.99;100.00
25664;BME280;13522;50.018;20.014;2023-02-12T20:37:06;100887.44;;;1.95;100.00
25664;BME280;13522;50.018;20.014;2023-02-12T20:40:27;100884.00;;;1.93;100.00
25664;BME280;13522;50.018;20.014;2023-02-12T20:44:27;100888.42;;;1.91;100.00
25664;BME280;13522;50.018;20.014;2023-02-12T20:48:07;100885.45;;;2.05;100.00
25664;BME280;13522;50.018;20.014;2023-02-12T20:52:14;100879.28;;;2.07;100.00
25664;BME280;13522;50.018;20.014;2023-02-12T20:55:55;100884.25;;;1.83;100.00
25664;BME280;13522;50.018;20.014;2023-02-12T20:59:26;100883.55;;;1.76;100.00
25664;BME280;13522;50.018;20.014;2023-02-12T21:03:07;100872.31;;;1.71;100.00
25664;BME280;13522;50.018;20.014;2023-02-12T21:06:21;100878.42;;;1.71;100.00
25664;BME280;13522;50.018;20.014;2023-02-12T21:10:37;100882.28;;;1.55;100.00
25664;BME280;13522;50.018;20.014;2023-02-12T21:13:53;100879.77;;;1.51;100.00
25664;BME280;13522;50.018;20.014;2023-02-12T21:17:19;100882.42;;;1.49;100.00
25664;BME280;13522;50.018;20.014;2023-02-12T21:20:32;100876.41;;;1.46;100.00
25664;BME280;13522;50.018;20.014;2023-02-12T21:24:16;100878.88;;;1.52;100.00
25664;BME280;13522;50.018;20.014;2023-02-12T21:27:31;100881.45;;;1.53;100.00
25664;BME280;13522;50.018;20.014;2023-02-12T21:31:35;100883.85;;;1.62;100.00
25664;BME280;13522;50.018;20.014;2023-02-12T21:34:50;100889.77;;;1.72;100.00
25664;BME280;13522;50.018;20.014;2023-02-12T21:38:04;100884.72;;;1.63;100.00
25664;BME280;13522;50.018;20.014;2023-02-12T21:41:45;100903.83;;;1.68;100.00
25664;BME280;13522;50.018;20.014;2023-02-12T21:45:02;100894.91;;;1.75;100.00
25664;BME280;13522;50.018;20.014;2023-02-12T21:48:26;100895.55;;;1.85;100.00
25664;BME280;13522;50.018;20.014;2023-02-12T21:51:45;100903.94;;;1.99;100.00